Time;durP1;ratioP1;P1;durP2;ratioP2;P2;SDS_P1;SDS_P2;PMS_P1;PMS_P2;Temp;Humidity;BMP_temperature;BMP_pressure;BME280_temperature;BME280_humidity;BME280_pressure;Samples;Min_cycle;Max_cycle;Signal;HPM_P1;HPM_P2
2023/06/12 00:02:13;;;;;;;8.50;3.67;;;;;;;;;;4961218;28;98174;-78
2023/06/12 00:04:44;;;;;;;4.13;3.83;;;;;;;;;;4959366;28;98402;-77
2023/06/12 00:07:11;;;;;;;5.05;4.00;;;;;;;;;;4962111;28;98247;-77
2023/06/12 00:09:38;;;;;;;3.97;3.05;;;;;;;;;;4961854;28;99225;-77
2023/06/12 00:12:05;;;;;;;3.92;3.53;;;;;;;;;;4969006;28;100068;-77
2023/06/12 00:14:32;;;;;;;3.95;3.20;;;;;;;;;;4963750;28;98429;-77
2023/06/12 00:16:58;;;;;;;4.47;3.08;;;;;;;;;;4948491;28;98504;-77
2023/06/12 00:19:27;;;;;;;4.65;3.58;;;;;;;;;;4959218;28;98150;-77
2023/06/12 00:21:55;;;;;;;6.00;4.05;;;;;;;;;;4962466;28;97973;-79
2023/06/12 00:24:22;;;;;;;8.63;3.72;;;;;;;;;;4954143;28;98476;-77
2023/06/12 00:26:48;;;;;;;4.55;3.53;;;;;;;;;;4962257;28;97366;-77
2023/06/12 00:29:15;;;;;;;7.13;3.67;;;;;;;;;;4967128;28;100955;-77
2023/06/12 00:31:42;;;;;;;11.55;3.75;;;;;;;;;;4963578;28;98484;-77
2023/06/12 00:34:08;;;;;;;6.30;3.65;;;;;;;;;;4960034;28;99200;-77
2023/06/12 00:36:35;;;;;;;6.45;3.55;;;;;;;;;;4962557;28;98273;-77
2023/06/12 00:39:03;;;;;;;5.90;3.78;;;;;;;;;;4950039;28;98525;-77
2023/06/12 00:41:32;;;;;;;4.70;3.47;;;;;;;;;;4944141;28;100931;-77
2023/06/12 00:43:59;;;;;;;4.47;3.72;;;;;;;;;;4955063;28;98707;-77
2023/06/12 00:46:26;;;;;;;5.78;3.72;;;;;;;;;;4959152;28;98463;-77
2023/06/12 00:48:52;;;;;;;6.85;4.15;;;;;;;;;;4971399;28;99817;-78
2023/06/12 00:51:20;;;;;;;3.55;3.25;;;;;;;;;;4959389;28;98449;-77
2023/06/12 00:53:47;;;;;;;10.50;3.83;;;;;;;;;;4959458;28;98315;-78
2023/06/12 00:56:13;;;;;;;5.28;3.88;;;;;;;;;;4956973;28;98844;-78
2023/06/12 00:58:40;;;;;;;9.88;3.15;;;;;;;;;;4950738;28;99072;-77
2023/06/12 01:01:08;;;;;;;5.63;3.28;;;;;;;;;;4954308;28;99925;-77
2023/06/12 01:03:36;;;;;;;5.63;3.60;;;;;;;;;;4957461;28;100721;-78
2023/06/12 01:06:04;;;;;;;7.43;3.38;;;;;;;;;;4956937;28;98359;-77
2023/06/12 01:08:42;;;;;;;5.05;3.90;;;;;;;;;;4961034;28;98371;-78
2023/06/12 01:11:09;;;;;;;6.90;3.70;;;;;;;;;;4968678;28;98666;-77
2023/06/12 01:13:36;;;;;;;4.25;3.85;;;;;;;;;;4964736;28;97971;-77
2023/06/12 01:16:03;;;;;;;4.32;3.80;;;;;;;;;;4961483;28;98063;-77
2023/06/12 01:18:32;;;;;;;8.10;3.90;;;;;;;;;;4958623;28;98392;-77
2023/06/12 01:21:03;;;;;;;5.82;3.80;;;;;;;;;;4960460;28;98399;-77
2023/06/12 01:23:31;;;;;;;6.47;3.45;;;;;;;;;;4953900;28;101580;-77
2023/06/12 01:26:11;;;;;;;6.80;3.72;;;;;;;;;;4947561;28;98471;-78
2023/06/12 01:28:37;;;;;;;7.57;4.10;;;;;;;;;;4941410;28;98913;-77
2023/06/12 01:31:08;;;;;;;7.95;4.40;;;;;;;;;;4948888;28;98157;-77
2023/06/12 01:33:37;;;;;;;6.60;4.03;;;;;;;;;;4935305;28;98546;-76
2023/06/12 01:36:07;;;;;;;4.88;4.30;;;;;;;;;;4952520;28;100385;-77
2023/06/12 01:38:34;;;;;;;5.10;4.30;;;;;;;;;;4950341;28;98622;-77
2023/06/12 01:41:01;;;;;;;6.90;4.15;;;;;;;;;;4933051;28;97826;-77
2023/06/12 01:43:28;;;;;;;5.13;4.03;;;;;;;;;;4948901;28;98525;-77
2023/06/12 01:45:55;;;;;;;9.35;4.03;;;;;;;;;;4951458;28;98499;-77
2023/06/12 01:48:22;;;;;;;5.00;4.43;;;;;;;;;;4950082;28;100777;-77
2023/06/12 01:50:50;;;;;;;3.78;3.47;;;;;;;;;;4934727;28;99305;-77
2023/06/12 01:53:17;;;;;;;5.40;4.60;;;;;;;;;;4950716;28;98352;-77
2023/06/12 01:55:44;;;;;;;4.50;4.10;;;;;;;;;;4949304;28;99652;-77
2023/06/12 01:58:16;;;;;;;3.97;3.53;;;;;;;;;;4932801;28;100114;-77
2023/06/12 02:01:08;;;;;;;7.53;4.07;;;;;;;;;;4949073;28;98607;-77
2023/06/12 02:03:39;;;;;;;7.70;4.90;;;;;;;;;;4945037;28;98198;-78
2023/06/12 02:06:06;;;;;;;5.35;4.90;;;;;;;;;;4953842;28;99482;-77
2023/06/12 02:08:32;;;;;;;6.72;4.40;;;;;;;;;;4949834;28;98608;-77
2023/06/12 02:10:59;;;;;;;8.65;5.40;;;;;;;;;;4946330;28;101742;-77
2023/06/12 02:13:25;;;;;;;5.10;4.60;;;;;;;;;;4951608;28;99191;-77
2023/06/12 02:15:52;;;;;;;6.38;4.57;;;;;;;;;;4950314;28;99937;-77
2023/06/12 02:18:19;;;;;;;6.20;4.13;;;;;;;;;;4946256;28;101594;-77
2023/06/12 02:20:45;;;;;;;4.88;3.75;;;;;;;;;;4951703;28;98261;-77
2023/06/12 02:23:12;;;;;;;7.57;3.92;;;;;;;;;;4949161;28;100242;-77
2023/06/12 02:25:39;;;;;;;8.30;3.83;;;;;;;;;;4953812;28;100286;-77
2023/06/12 02:28:05;;;;;;;5.15;4.18;;;;;;;;;;4943607;28;100034;-77
2023/06/12 02:30:32;;;;;;;5.93;4.65;;;;;;;;;;4938411;28;97455;-77
2023/06/12 02:32:59;;;;;;;13.75;4.10;;;;;;;;;;4946959;28;98370;-78
2023/06/12 02:35:25;;;;;;;3.97;3.58;;;;;;;;;;4934367;28;99748;-77
2023/06/12 02:37:53;;;;;;;5.07;4.07;;;;;;;;;;4949121;28;99300;-77
2023/06/12 02:40:19;;;;;;;11.55;4.60;;;;;;;;;;4947949;28;99022;-77
2023/06/12 02:42:46;;;;;;;4.20;3.70;;;;;;;;;;4930113;28;99778;-77
2023/06/12 02:45:13;;;;;;;4.82;3.97;;;;;;;;;;4940626;28;100306;-77
2023/06/12 02:47:41;;;;;;;4.07;3.78;;;;;;;;;;4953986;28;98508;-77
2023/06/12 02:50:08;;;;;;;5.28;4.53;;;;;;;;;;4949441;28;100613;-77
2023/06/12 02:52:44;;;;;;;7.60;4.47;;;;;;;;;;4940101;28;98561;-77
2023/06/12 02:55:10;;;;;;;12.20;4.45;;;;;;;;;;4933587;28;98095;-77
2023/06/12 02:57:37;;;;;;;8.95;4.40;;;;;;;;;;4941977;28;98323;-77
2023/06/12 03:00:05;;;;;;;8.70;4.28;;;;;;;;;;4942274;28;98465;-77
2023/06/12 03:02:42;;;;;;;6.82;4.25;;;;;;;;;;4940101;28;99207;-77
2023/06/12 03:05:12;;;;;;;9.07;4.90;;;;;;;;;;4962680;28;101046;-76
2023/06/12 03:07:40;;;;;;;6.53;4.65;;;;;;;;;;4958306;28;98532;-77
2023/06/12 03:10:08;;;;;;;4.85;4.40;;;;;;;;;;4943895;28;100370;-77
2023/06/12 03:12:34;;;;;;;16.48;3.97;;;;;;;;;;4941478;28;98760;-77
2023/06/12 03:15:02;;;;;;;6.30;5.05;;;;;;;;;;4937823;28;100465;-77
2023/06/12 03:17:29;;;;;;;9.57;5.30;;;;;;;;;;4936597;28;101018;-77
2023/06/12 03:19:56;;;;;;;8.15;4.40;;;;;;;;;;4950434;28;97798;-77
2023/06/12 03:22:23;;;;;;;4.93;4.43;;;;;;;;;;4938068;28;100534;-77
2023/06/12 03:24:53;;;;;;;8.60;4.40;;;;;;;;;;4916823;28;100548;-77
2023/06/12 03:27:20;;;;;;;8.50;4.72;;;;;;;;;;4947258;28;99378;-77
2023/06/12 03:29:47;;;;;;;6.85;4.75;;;;;;;;;;4948340;28;101601;-77
2023/06/12 03:32:14;;;;;;;8.63;5.10;;;;;;;;;;4948576;28;101604;-77
2023/06/12 03:34:52;;;;;;;4.50;4.10;;;;;;;;;;4948381;28;98932;-77
2023/06/12 03:37:19;;;;;;;10.32;4.80;;;;;;;;;;4948196;28;101542;-77
2023/06/12 03:39:46;;;;;;;7.50;4.72;;;;;;;;;;4931886;28;98495;-77
2023/06/12 03:42:12;;;;;;;4.55;4.15;;;;;;;;;;4950172;28;98455;-77
2023/06/12 03:44:51;;;;;;;13.23;4.35;;;;;;;;;;4948034;28;99792;-77
2023/06/12 03:47:17;;;;;;;4.72;4.07;;;;;;;;;;4942675;28;98360;-77
2023/06/12 03:49:46;;;;;;;4.72;3.95;;;;;;;;;;4948819;28;100294;-77
2023/06/12 03:52:14;;;;;;;7.13;4.43;;;;;;;;;;4947954;28;100958;-77
2023/06/12 03:54:40;;;;;;;18.92;4.35;;;;;;;;;;4952033;28;98182;-77
2023/06/12 03:57:07;;;;;;;8.40;4.45;;;;;;;;;;4948695;28;102366;-77
2023/06/12 03:59:34;;;;;;;6.78;4.90;;;;;;;;;;4948718;28;98393;-77
2023/06/12 04:02:01;;;;;;;5.30;4.05;;;;;;;;;;4945654;28;99733;-77
2023/06/12 04:04:27;;;;;;;6.32;4.85;;;;;;;;;;4946464;28;100901;-77
2023/06/12 04:06:55;;;;;;;9.10;4.68;;;;;;;;;;4946763;28;98430;-77
2023/06/12 04:09:22;;;;;;;6.70;4.20;;;;;;;;;;4932738;28;100956;-77
2023/06/12 04:11:49;;;;;;;6.72;4.57;;;;;;;;;;4948289;28;101030;-77
2023/06/12 04:14:16;;;;;;;7.60;4.13;;;;;;;;;;4947525;28;98062;-77
2023/06/12 04:16:43;;;;;;;6.78;4.18;;;;;;;;;;4954045;28;100487;-77
2023/06/12 04:19:09;;;;;;;7.97;4.40;;;;;;;;;;4951393;28;98660;-77
2023/06/12 04:21:36;;;;;;;5.13;4.47;;;;;;;;;;4951848;28;100477;-77
2023/06/12 04:24:03;;;;;;;6.15;5.20;;;;;;;;;;4947893;28;101240;-77
2023/06/12 04:26:31;;;;;;;5.70;4.85;;;;;;;;;;4943260;28;98250;-77
2023/06/12 04:29:02;;;;;;;5.72;4.55;;;;;;;;;;4939764;28;98698;-77
2023/06/12 04:31:29;;;;;;;7.65;4.60;;;;;;;;;;4951625;28;98623;-77
2023/06/12 04:33:55;;;;;;;6.15;4.55;;;;;;;;;;4951734;28;97840;-77
2023/06/12 04:36:22;;;;;;;5.00;4.07;;;;;;;;;;4939163;28;101013;-77
2023/06/12 04:38:52;;;;;;;5.00;4.60;;;;;;;;;;4950934;28;99251;-77
2023/06/12 04:41:20;;;;;;;4.90;4.40;;;;;;;;;;4935547;28;99432;-77
2023/06/12 04:43:48;;;;;;;5.30;4.80;;;;;;;;;;4950604;28;100581;-77
2023/06/12 04:46:17;;;;;;;6.20;4.65;;;;;;;;;;4948629;28;98371;-77
2023/06/12 04:48:45;;;;;;;7.10;4.47;;;;;;;;;;4945457;28;100701;-77
2023/06/12 04:51:13;;;;;;;10.43;4.78;;;;;;;;;;4940526;28;98516;-77
2023/06/12 04:53:43;;;;;;;4.82;4.18;;;;;;;;;;4965574;28;98792;-77
2023/06/12 04:56:12;;;;;;;7.18;4.53;;;;;;;;;;4939903;28;98251;-77
2023/06/12 04:58:40;;;;;;;9.45;5.03;;;;;;;;;;4961965;28;97815;-77
2023/06/12 05:01:07;;;;;;;7.93;3.95;;;;;;;;;;4938865;28;99482;-77
2023/06/12 05:03:34;;;;;;;7.22;5.05;;;;;;;;;;4951602;28;101623;-77
2023/06/12 05:06:01;;;;;;;8.50;4.80;;;;;;;;;;4950648;28;99411;-78
2023/06/12 05:08:29;;;;;;;8.20;4.88;;;;;;;;;;4949787;28;98796;-77
2023/06/12 05:10:59;;;;;;;7.47;4.97;;;;;;;;;;4949087;28;102000;-77
2023/06/12 05:13:25;;;;;;;5.85;4.25;;;;;;;;;;4952896;28;98516;-77
2023/06/12 05:15:52;;;;;;;13.43;5.40;;;;;;;;;;4950843;28;98245;-77
2023/06/12 05:18:18;;;;;;;9.20;5.53;;;;;;;;;;4951220;28;100082;-77
2023/06/12 05:20:45;;;;;;;10.48;5.25;;;;;;;;;;4955840;28;98516;-77
2023/06/12 05:23:12;;;;;;;7.43;4.85;;;;;;;;;;4951307;28;100058;-77
2023/06/12 05:25:39;;;;;;;18.48;5.72;;;;;;;;;;4952126;28;98497;-77
2023/06/12 05:28:06;;;;;;;7.57;4.78;;;;;;;;;;4932535;28;99820;-77
2023/06/12 05:30:33;;;;;;;9.77;6.03;;;;;;;;;;4946136;28;100889;-77
2023/06/12 05:33:02;;;;;;;8.00;4.93;;;;;;;;;;4935899;28;98572;-77
2023/06/12 05:35:30;;;;;;;12.95;5.57;;;;;;;;;;4950070;28;98478;-77
2023/06/12 05:37:57;;;;;;;5.57;4.95;;;;;;;;;;4917457;28;100078;-77
2023/06/12 05:40:25;;;;;;;9.40;4.88;;;;;;;;;;4931893;28;98496;-77
2023/06/12 05:42:51;;;;;;;9.27;6.38;;;;;;;;;;4943272;28;98521;-77
2023/06/12 05:45:19;;;;;;;7.53;5.05;;;;;;;;;;4948368;28;98481;-77
2023/06/12 05:47:46;;;;;;;9.38;5.32;;;;;;;;;;4951241;28;100732;-77
2023/06/12 05:50:16;;;;;;;8.38;4.75;;;;;;;;;;4951560;28;98488;-77
2023/06/12 05:52:43;;;;;;;15.43;6.43;;;;;;;;;;4947403;28;98330;-78
2023/06/12 05:55:10;;;;;;;11.77;6.03;;;;;;;;;;4943002;28;100316;-77
2023/06/12 05:57:37;;;;;;;7.85;5.65;;;;;;;;;;4940037;28;99625;-77
2023/06/12 06:00:05;;;;;;;15.60;6.05;;;;;;;;;;4937837;28;98713;-77
2023/06/12 06:02:42;;;;;;;15.40;5.05;;;;;;;;;;4945415;28;98676;-77
2023/06/12 06:05:16;;;;;;;5.15;4.60;;;;;;;;;;4950048;28;98647;-77
2023/06/12 06:07:43;;;;;;;9.00;5.20;;;;;;;;;;4928813;28;98292;-77
2023/06/12 06:10:10;;;;;;;11.60;5.60;;;;;;;;;;4946263;28;99176;-77
2023/06/12 06:12:37;;;;;;;15.52;5.28;;;;;;;;;;4938067;28;97757;-77
2023/06/12 06:15:04;;;;;;;9.05;5.45;;;;;;;;;;4946866;28;98539;-77
2023/06/12 06:17:30;;;;;;;20.63;5.95;;;;;;;;;;4943173;28;98441;-78
2023/06/12 06:19:58;;;;;;;8.55;5.65;;;;;;;;;;4942825;28;99155;-78
2023/06/12 06:22:24;;;;;;;17.65;6.13;;;;;;;;;;4932941;28;99703;-78
2023/06/12 06:24:52;;;;;;;13.20;6.30;;;;;;;;;;4941865;28;98569;-78
2023/06/12 06:27:19;;;;;;;11.85;5.80;;;;;;;;;;4940960;28;98559;-79
2023/06/12 06:29:45;;;;;;;16.95;5.97;;;;;;;;;;4948583;28;98484;-78
2023/06/12 06:32:12;;;;;;;8.00;5.30;;;;;;;;;;4947270;28;98531;-78
2023/06/12 06:34:38;;;;;;;15.32;5.88;;;;;;;;;;4932033;28;99849;-77
2023/06/12 06:37:08;;;;;;;7.55;5.53;;;;;;;;;;4937859;28;97803;-77
2023/06/12 06:39:35;;;;;;;9.75;4.78;;;;;;;;;;4944620;28;98450;-77
2023/06/12 06:42:02;;;;;;;13.52;5.25;;;;;;;;;;4937907;28;98924;-77
2023/06/12 06:44:42;;;;;;;10.40;5.03;;;;;;;;;;4948635;28;99280;-78
2023/06/12 06:47:10;;;;;;;10.05;4.75;;;;;;;;;;4959501;28;98457;-77
2023/06/12 06:49:37;;;;;;;9.50;5.57;;;;;;;;;;4957717;28;98537;-77
2023/06/12 06:52:05;;;;;;;15.65;5.90;;;;;;;;;;4954758;28;98110;-77
2023/06/12 06:54:33;;;;;;;11.55;5.55;;;;;;;;;;4951306;28;98547;-77
2023/06/12 06:57:02;;;;;;;5.93;4.93;;;;;;;;;;4946473;28;99123;-77
2023/06/12 06:59:29;;;;;;;11.23;5.18;;;;;;;;;;4950736;28;99198;-77
2023/06/12 07:01:55;;;;;;;8.43;5.43;;;;;;;;;;4938414;28;99839;-77
2023/06/12 07:04:23;;;;;;;11.10;5.72;;;;;;;;;;4950239;28;98479;-77
2023/06/12 07:06:50;;;;;;;6.30;5.43;;;;;;;;;;4954662;28;98553;-77
2023/06/12 07:09:18;;;;;;;10.52;5.18;;;;;;;;;;4939995;28;101783;-77
2023/06/12 07:11:45;;;;;;;9.93;5.50;;;;;;;;;;4941502;28;98402;-78
2023/06/12 07:14:12;;;;;;;10.30;5.28;;;;;;;;;;4952395;28;99229;-78
2023/06/12 07:16:39;;;;;;;19.15;5.60;;;;;;;;;;4957962;28;98643;-78
2023/06/12 07:19:06;;;;;;;13.77;4.97;;;;;;;;;;4960803;28;98572;-78
2023/06/12 07:21:33;;;;;;;11.00;5.53;;;;;;;;;;4938257;28;100468;-78
2023/06/12 07:23:59;;;;;;;8.13;5.15;;;;;;;;;;4949690;28;100099;-78
2023/06/12 07:26:28;;;;;;;7.03;5.15;;;;;;;;;;4950282;28;97669;-78
2023/06/12 07:29:01;;;;;;;13.48;5.22;;;;;;;;;;4943248;28;98410;-79
2023/06/12 07:31:29;;;;;;;17.60;4.70;;;;;;;;;;4959645;28;100735;-78
2023/06/12 07:33:56;;;;;;;9.93;5.43;;;;;;;;;;4956495;28;99137;-78
2023/06/12 07:36:23;;;;;;;11.90;4.78;;;;;;;;;;4940805;28;99785;-78
2023/06/12 07:38:50;;;;;;;10.07;4.70;;;;;;;;;;4943257;28;98273;-78
2023/06/12 07:41:17;;;;;;;9.55;4.90;;;;;;;;;;4944236;28;98061;-79
2023/06/12 07:43:44;;;;;;;11.45;4.80;;;;;;;;;;4945255;28;99731;-78
2023/06/12 07:46:10;;;;;;;8.85;4.72;;;;;;;;;;4945130;28;98453;-78
2023/06/12 07:48:37;;;;;;;5.63;4.75;;;;;;;;;;4953925;28;100838;-78
2023/06/12 07:51:04;;;;;;;12.32;5.05;;;;;;;;;;4957716;28;100122;-78
2023/06/12 07:53:31;;;;;;;8.93;4.63;;;;;;;;;;4945808;28;98538;-78
2023/06/12 07:56:08;;;;;;;7.75;4.60;;;;;;;;;;4941715;28;100966;-79
2023/06/12 07:58:37;;;;;;;9.70;4.68;;;;;;;;;;4950651;28;98753;-78
2023/06/12 08:01:06;;;;;;;10.43;4.78;;;;;;;;;;4947120;28;98573;-78
2023/06/12 08:03:38;;;;;;;6.82;4.88;;;;;;;;;;4962529;28;98362;-78
2023/06/12 08:06:11;;;;;;;5.90;4.65;;;;;;;;;;4965944;28;98341;-79
2023/06/12 08:08:39;;;;;;;;;;;;;;;;;;4971386;28;98756;-79
2023/06/12 08:11:05;;;;;;;6.10;4.60;;;;;;;;;;4958788;28;131700;-79
2023/06/12 08:13:32;;;;;;;20.27;4.50;;;;;;;;;;4959691;28;98417;-78
2023/06/12 08:15:59;;;;;;;4.88;4.03;;;;;;;;;;4963873;28;99943;-79
2023/06/12 08:18:27;;;;;;;7.60;4.50;;;;;;;;;;4962672;28;98563;-79
2023/06/12 08:20:55;;;;;;;7.97;4.72;;;;;;;;;;4952941;28;99924;-79
2023/06/12 08:23:22;;;;;;;13.77;5.00;;;;;;;;;;4959041;28;101010;-79
2023/06/12 08:25:48;;;;;;;8.32;4.93;;;;;;;;;;4952048;28;98298;-78
2023/06/12 08:28:15;;;;;;;9.90;4.20;;;;;;;;;;4948783;28;98461;-78
2023/06/12 08:30:44;;;;;;;6.00;3.95;;;;;;;;;;4960768;28;100057;-78
2023/06/12 08:33:15;;;;;;;8.13;3.85;;;;;;;;;;4954717;28;97825;-79
2023/06/12 08:35:43;;;;;;;5.03;4.25;;;;;;;;;;4963437;28;98688;-79
2023/06/12 08:38:09;;;;;;;10.85;4.70;;;;;;;;;;4951066;28;98610;-78
2023/06/12 08:40:36;;;;;;;13.05;4.63;;;;;;;;;;4950645;28;100027;-78
2023/06/12 08:43:04;;;;;;;6.90;4.10;;;;;;;;;;4943387;28;102062;-78
2023/06/12 08:45:32;;;;;;;5.40;4.20;;;;;;;;;;4946574;28;98521;-78
2023/06/12 08:47:59;;;;;;;5.88;4.10;;;;;;;;;;4943774;28;99055;-78
2023/06/12 08:50:27;;;;;;;11.85;4.50;;;;;;;;;;4960761;28;98460;-79
2023/06/12 08:52:55;;;;;;;5.13;3.97;;;;;;;;;;4958643;28;98528;-79
2023/06/12 08:55:22;;;;;;;8.65;4.25;;;;;;;;;;4952842;28;98665;-78
2023/06/12 08:57:48;;;;;;;7.32;4.82;;;;;;;;;;4945900;28;98721;-79
2023/06/12 09:00:15;;;;;;;14.07;4.40;;;;;;;;;;4948496;28;99224;-79
2023/06/12 09:02:44;;;;;;;7.93;4.65;;;;;;;;;;4955312;28;98727;-78
2023/06/12 09:05:14;;;;;;;5.22;3.75;;;;;;;;;;4955170;28;97835;-79
2023/06/12 09:07:43;;;;;;;10.98;4.65;;;;;;;;;;4953157;28;99408;-79
2023/06/12 09:10:10;;;;;;;8.95;4.60;;;;;;;;;;4956984;28;99339;-78
2023/06/12 09:12:43;;;;;;;20.00;4.57;;;;;;;;;;4952431;28;100072;-79
2023/06/12 09:15:17;;;;;;;5.93;4.03;;;;;;;;;;4947679;28;100653;-78
2023/06/12 09:17:47;;;;;;;4.70;3.83;;;;;;;;;;4950828;28;98600;-79
2023/06/12 09:20:15;;;;;;;6.87;3.43;;;;;;;;;;4954195;28;98625;-79
2023/06/12 09:22:58;;;;;;;9.48;3.95;;;;;;;;;;4952250;28;98614;-79
2023/06/12 09:25:35;;;;;;;9.75;3.65;;;;;;;;;;4945304;28;98453;-79
2023/06/12 09:28:05;;;;;;;6.50;3.72;;;;;;;;;;4954618;28;98661;-79
2023/06/12 09:30:32;;;;;;;3.78;3.45;;;;;;;;;;4956401;28;97802;-78
2023/06/12 09:33:03;;;;;;;4.32;3.92;;;;;;;;;;4957257;28;97918;-79
2023/06/12 09:35:29;;;;;;;;;;;;;;;;;;4954232;28;98424;-78
2023/06/12 09:37:56;;;;;;;5.05;3.40;;;;;;;;;;4955616;28;101455;-79
2023/06/12 09:40:23;;;;;;;3.92;3.53;;;;;;;;;;4958892;28;98577;-78
2023/06/12 09:42:50;;;;;;;9.27;3.65;;;;;;;;;;4941359;28;99699;-78
2023/06/12 09:45:20;;;;;;;10.15;3.70;;;;;;;;;;4955955;28;98384;-78
2023/06/12 09:47:48;;;;;;;13.27;3.60;;;;;;;;;;4954620;28;99768;-79
2023/06/12 09:50:15;;;;;;;5.55;3.78;;;;;;;;;;4953351;28;98402;-79
2023/06/12 09:52:43;;;;;;;7.63;3.70;;;;;;;;;;4957015;28;98347;-79
2023/06/12 09:55:11;;;;;;;4.18;3.78;;;;;;;;;;4956705;28;100718;-79
2023/06/12 09:57:40;;;;;;;4.57;3.42;;;;;;;;;;4954988;28;98575;-78
2023/06/12 10:00:11;;;;;;;4.55;3.40;;;;;;;;;;4956100;28;98541;-79
2023/06/12 10:02:43;;;;;;;7.65;3.13;;;;;;;;;;4939636;28;99254;-79
2023/06/12 10:05:37;;;;;;;4.10;3.42;;;;;;;;;;4945834;28;100196;-80
2023/06/12 10:08:05;;;;;;;9.85;3.38;;;;;;;;;;4951419;28;97917;-80
2023/06/12 10:10:35;;;;;;;4.63;3.55;;;;;;;;;;4947174;28;98334;-80
2023/06/12 10:13:02;;;;;;;4.22;3.83;;;;;;;;;;4945899;28;98529;-79
2023/06/12 10:15:29;;;;;;;8.88;3.53;;;;;;;;;;4953475;28;98589;-78
2023/06/12 10:17:56;;;;;;;6.10;4.03;;;;;;;;;;4952003;28;98508;-79
2023/06/12 10:20:23;;;;;;;6.50;3.40;;;;;;;;;;4959281;28;98966;-79
2023/06/12 10:22:59;;;;;;;12.70;3.67;;;;;;;;;;4951883;28;98370;-80
2023/06/12 10:25:26;;;;;;;6.38;3.42;;;;;;;;;;4943686;28;100884;-79
2023/06/12 10:27:53;;;;;;;12.70;3.50;;;;;;;;;;4952422;28;99105;-79
2023/06/12 10:30:20;;;;;;;3.60;3.30;;;;;;;;;;4942857;28;99293;-79
2023/06/12 10:32:46;;;;;;;5.47;3.40;;;;;;;;;;4946041;28;98495;-78
2023/06/12 10:35:27;;;;;;;6.15;3.70;;;;;;;;;;4948061;28;98542;-78
2023/06/12 10:37:55;;;;;;;7.05;4.22;;;;;;;;;;4954485;28;99844;-79
2023/06/12 10:40:22;;;;;;;8.15;3.95;;;;;;;;;;4950295;28;98509;-79
2023/06/12 10:43:08;;;;;;;6.75;3.97;;;;;;;;;;4940379;28;101008;-79
2023/06/12 10:45:37;;;;;;;4.03;3.65;;;;;;;;;;4948275;28;99993;-79
2023/06/12 10:48:07;;;;;;;4.68;3.50;;;;;;;;;;4962579;28;98161;-79
2023/06/12 10:50:43;;;;;;;7.05;3.90;;;;;;;;;;4960490;28;98579;-80
2023/06/12 10:53:19;;;;;;;6.57;3.38;;;;;;;;;;4958172;28;99068;-80
2023/06/12 10:55:46;;;;;;;4.38;3.67;;;;;;;;;;4945121;28;98913;-80
2023/06/12 10:58:14;;;;;;;3.80;3.50;;;;;;;;;;4955662;28;98381;-79
2023/06/12 11:00:48;;;;;;;7.22;3.50;;;;;;;;;;4956791;28;98753;-79
2023/06/12 11:03:17;;;;;;;6.57;3.10;;;;;;;;;;4959419;28;98425;-80
2023/06/12 11:05:47;;;;;;;4.47;3.30;;;;;;;;;;4955953;28;101090;-79
2023/06/12 11:08:14;;;;;;;11.73;3.83;;;;;;;;;;4957039;28;98526;-79
2023/06/12 11:10:41;;;;;;;7.32;3.33;;;;;;;;;;4959560;28;97657;-79
2023/06/12 11:13:07;;;;;;;17.27;3.97;;;;;;;;;;4953714;28;98563;-77
2023/06/12 11:15:44;;;;;;;6.78;3.42;;;;;;;;;;4953144;28;98228;-78
2023/06/12 11:18:12;;;;;;;6.30;3.58;;;;;;;;;;4956204;28;99299;-79
2023/06/12 11:20:39;;;;;;;10.80;3.38;;;;;;;;;;4958145;28;98404;-78
2023/06/12 11:23:06;;;;;;;4.50;3.30;;;;;;;;;;4956739;28;98575;-79
2023/06/12 11:25:33;;;;;;;6.60;2.63;;;;;;;;;;4945748;28;98476;-79
2023/06/12 11:28:00;;;;;;;3.50;3.20;;;;;;;;;;4954787;28;98404;-79
2023/06/12 11:30:27;;;;;;;3.08;2.65;;;;;;;;;;4956432;28;98527;-79
2023/06/12 11:33:07;;;;;;;7.35;3.30;;;;;;;;;;4959556;28;98576;-79
2023/06/12 11:35:38;;;;;;;4.38;2.90;;;;;;;;;;4951999;28;99338;-79
2023/06/12 11:38:05;;;;;;;6.95;3.42;;;;;;;;;;4953512;28;98603;-79
2023/06/12 11:40:34;;;;;;;4.63;3.60;;;;;;;;;;4950558;28;98617;-79
2023/06/12 11:43:01;;;;;;;7.10;3.53;;;;;;;;;;4951226;28;99928;-80
2023/06/12 11:45:29;;;;;;;6.15;3.38;;;;;;;;;;4951609;28;98656;-79
2023/06/12 11:47:57;;;;;;;8.35;3.35;;;;;;;;;;4948460;28;98647;-78
2023/06/12 11:50:27;;;;;;;6.65;3.33;;;;;;;;;;4953976;28;98535;-78
2023/06/12 11:52:54;;;;;;;7.50;3.63;;;;;;;;;;4951929;28;99306;-78
2023/06/12 11:55:21;;;;;;;8.60;3.97;;;;;;;;;;4954959;28;98478;-78
2023/06/12 11:57:51;;;;;;;3.47;3.17;;;;;;;;;;4942450;28;98194;-77
2023/06/12 12:00:19;;;;;;;5.82;4.00;;;;;;;;;;4950836;28;97713;-77
2023/06/12 12:02:49;;;;;;;6.85;2.90;;;;;;;;;;4952346;28;98140;-77
2023/06/12 12:05:20;;;;;;;3.03;2.80;;;;;;;;;;4952451;28;98556;-77
2023/06/12 12:07:56;;;;;;;6.68;3.05;;;;;;;;;;4950985;28;99353;-78
2023/06/12 12:10:24;;;;;;;6.65;3.42;;;;;;;;;;4950028;28;102338;-77
2023/06/12 12:12:51;;;;;;;3.95;3.30;;;;;;;;;;4930782;28;100180;-77
2023/06/12 12:15:20;;;;;;;6.65;3.05;;;;;;;;;;4953500;28;98518;-78
2023/06/12 12:17:47;;;;;;;7.72;3.70;;;;;;;;;;4955569;28;98680;-78
2023/06/12 12:20:18;;;;;;;7.70;3.45;;;;;;;;;;4952239;28;98579;-78
2023/06/12 12:22:46;;;;;;;5.15;3.35;;;;;;;;;;4951368;28;98370;-78
2023/06/12 12:25:17;;;;;;;6.10;3.20;;;;;;;;;;4940773;28;99129;-78
2023/06/12 12:27:44;;;;;;;6.70;3.08;;;;;;;;;;4959124;28;98493;-78
2023/06/12 12:30:14;;;;;;;7.32;2.60;;;;;;;;;;4958666;28;98995;-77
2023/06/12 12:32:42;;;;;;;6.40;3.00;;;;;;;;;;4951731;28;99645;-79
2023/06/12 12:35:09;;;;;;;3.95;2.58;;;;;;;;;;4953371;28;98721;-79
2023/06/12 12:37:36;;;;;;;5.63;2.92;;;;;;;;;;4956144;28;98336;-78
2023/06/12 12:40:05;;;;;;;3.53;2.70;;;;;;;;;;4963743;28;98415;-79
2023/06/12 12:42:33;;;;;;;5.13;3.22;;;;;;;;;;4945883;28;99126;-78
2023/06/12 12:44:59;;;;;;;4.45;3.10;;;;;;;;;;4960322;28;98545;-78
2023/06/12 12:47:26;;;;;;;4.25;3.20;;;;;;;;;;4958417;28;98537;-78
2023/06/12 12:49:52;;;;;;;8.05;3.33;;;;;;;;;;4958276;28;97763;-78
2023/06/12 12:52:19;;;;;;;8.05;3.15;;;;;;;;;;4959389;28;98409;-77
2023/06/12 12:55:06;;;;;;;2.88;2.67;;;;;;;;;;4959793;28;99060;-78
2023/06/12 12:57:38;;;;;;;5.45;3.20;;;;;;;;;;4954724;28;99282;-77
2023/06/12 13:00:07;;;;;;;11.77;3.15;;;;;;;;;;4950310;28;98604;-77
2023/06/12 13:02:34;;;;;;;6.78;3.35;;;;;;;;;;4954554;28;98968;-78
2023/06/12 13:05:01;;;;;;;4.43;3.22;;;;;;;;;;4945538;28;98639;-78
2023/06/12 13:07:28;;;;;;;5.07;3.20;;;;;;;;;;4950270;28;98623;-78
2023/06/12 13:09:54;;;;;;;4.45;3.60;;;;;;;;;;4949756;28;98345;-77
2023/06/12 13:12:20;;;;;;;6.20;3.40;;;;;;;;;;4935060;28;98463;-78
2023/06/12 13:14:47;;;;;;;7.68;3.42;;;;;;;;;;4939308;28;97221;-78
2023/06/12 13:17:13;;;;;;;6.65;3.60;;;;;;;;;;4940693;28;98464;-78
2023/06/12 13:19:40;;;;;;;13.13;3.85;;;;;;;;;;4940627;28;98313;-78
2023/06/12 13:22:07;;;;;;;6.35;4.47;;;;;;;;;;4943014;28;99897;-78
2023/06/12 13:24:33;;;;;;;6.45;3.50;;;;;;;;;;4938559;28;99646;-77
2023/06/12 13:27:00;;;;;;;3.05;2.70;;;;;;;;;;4950797;28;98317;-78
2023/06/12 13:29:27;;;;;;;6.65;3.13;;;;;;;;;;4953200;28;98050;-78
2023/06/12 13:31:53;;;;;;;4.03;3.08;;;;;;;;;;4952989;28;100778;-79
2023/06/12 13:34:20;;;;;;;9.10;3.10;;;;;;;;;;4955769;28;98768;-79
2023/06/12 13:36:46;;;;;;;3.03;2.83;;;;;;;;;;4949715;28;98973;-79
2023/06/12 13:39:13;;;;;;;3.10;2.90;;;;;;;;;;4940969;28;97854;-78
2023/06/12 13:41:39;;;;;;;4.72;2.92;;;;;;;;;;4957023;28;98913;-78
2023/06/12 13:44:06;;;;;;;4.72;3.28;;;;;;;;;;4960405;28;98545;-79
2023/06/12 13:46:33;;;;;;;6.72;3.53;;;;;;;;;;4955581;28;99396;-78
2023/06/12 13:49:02;;;;;;;4.30;3.08;;;;;;;;;;4954908;28;99879;-78
2023/06/12 13:51:29;;;;;;;8.85;3.58;;;;;;;;;;4950497;28;99493;-78
2023/06/12 13:53:56;;;;;;;6.82;3.10;;;;;;;;;;4936692;28;98568;-78
2023/06/12 13:56:22;;;;;;;6.13;3.38;;;;;;;;;;4950900;28;98835;-78
2023/06/12 13:58:49;;;;;;;12.38;3.50;;;;;;;;;;4952715;28;98152;-78
2023/06/12 14:01:16;;;;;;;9.65;3.00;;;;;;;;;;4948056;28;99117;-78
2023/06/12 14:03:43;;;;;;;7.90;2.72;;;;;;;;;;4957090;28;99287;-78
2023/06/12 14:06:12;;;;;;;8.68;3.67;;;;;;;;;;4962391;28;98533;-78
2023/06/12 14:08:40;;;;;;;3.35;3.08;;;;;;;;;;4949734;28;98754;-78
2023/06/12 14:11:07;;;;;;;3.63;3.25;;;;;;;;;;4946596;28;99251;-78
2023/06/12 14:13:34;;;;;;;10.38;3.10;;;;;;;;;;4956228;28;97987;-78
2023/06/12 14:16:04;;;;;;;4.32;2.92;;;;;;;;;;4970286;28;98950;-78
2023/06/12 14:18:31;;;;;;;6.10;3.22;;;;;;;;;;4974714;28;98899;-79
2023/06/12 14:21:01;;;;;;;28.50;3.28;;;;;;;;;;4965171;28;97616;-79
2023/06/12 14:23:28;;;;;;;9.45;2.78;;;;;;;;;;4941691;28;98579;-78
2023/06/12 14:25:54;;;;;;;7.03;2.75;;;;;;;;;;4943304;28;99777;-78
2023/06/12 14:28:21;;;;;;;5.07;2.75;;;;;;;;;;4953122;28;97692;-79
2023/06/12 14:30:47;;;;;;;4.25;2.28;;;;;;;;;;4949973;28;98407;-78
2023/06/12 14:33:14;;;;;;;3.00;2.70;;;;;;;;;;4948759;28;98587;-79
2023/06/12 14:35:40;;;;;;;6.32;2.60;;;;;;;;;;4955546;28;99254;-81
2023/06/12 14:38:07;;;;;;;8.13;3.30;;;;;;;;;;4950925;28;99646;-79
2023/06/12 14:40:33;;;;;;;3.40;2.65;;;;;;;;;;4953995;28;98485;-79
2023/06/12 14:43:00;;;;;;;8.90;3.25;;;;;;;;;;4951307;28;98313;-79
2023/06/12 14:45:26;;;;;;;3.67;3.13;;;;;;;;;;4957125;28;98607;-79